Time;durP1;ratioP1;P1;durP2;ratioP2;P2;SDS_P1;SDS_P2;PMS_P1;PMS_P2;Temp;Humidity;BMP_temperature;BMP_pressure;BME280_temperature;BME280_humidity;BME280_pressure;Samples;Min_cycle;Max_cycle;Signal;HPM_P1;HPM_P2
2022/04/13 00:00:15;;;;;;;0.05;0.05;;;10.60;99.90;12.80;88045.00;;;;5011586;28;20224;-69
2022/04/13 00:02:43;;;;;;;0.10;0.10;;;10.60;99.90;12.80;88045.00;;;;5011511;28;20204;-70
2022/04/13 00:05:12;;;;;;;0.10;0.10;;;10.70;99.90;12.80;88045.00;;;;5014144;28;20224;-70
2022/04/13 00:07:41;;;;;;;0.10;0.10;;;10.70;99.90;12.80;88045.00;;;;5008956;28;20250;-70
2022/04/13 00:10:09;;;;;;;0.10;0.10;;;10.60;99.90;12.80;88045.00;;;;5002954;28;20783;-70
2022/04/13 00:12:38;;;;;;;0.05;0.05;;;10.60;99.90;12.80;88045.00;;;;5020091;28;20195;-71
2022/04/13 00:15:08;;;;;;;0.10;0.10;;;10.60;99.90;12.80;88045.00;;;;5032859;28;20194;-70
2022/04/13 00:17:37;;;;;;;0.10;0.10;;;10.60;99.90;12.80;88045.00;;;;5014153;28;20212;-70
2022/04/13 00:20:07;;;;;;;0.00;0.00;;;10.60;99.90;12.80;88045.00;;;;5013482;28;20219;-70
2022/04/13 00:22:35;;;;;;;0.10;0.10;;;10.50;99.90;12.80;88045.00;;;;5010618;28;20192;-70
2022/04/13 00:25:06;;;;;;;0.10;0.10;;;10.50;99.90;12.80;88045.00;;;;4994474;28;20678;-69
2022/04/13 00:27:34;;;;;;;0.10;0.10;;;10.50;99.90;12.80;88045.00;;;;5015619;28;20202;-69
2022/04/13 00:30:02;;;;;;;0.10;0.10;;;10.60;99.90;12.80;88045.00;;;;5024119;28;20231;-69
2022/04/13 00:32:32;;;;;;;0.10;0.10;;;10.50;99.90;12.80;88045.00;;;;5013225;28;20199;-69
2022/04/13 00:35:03;;;;;;;0.10;0.10;;;10.50;99.90;12.80;88045.00;;;;5007868;28;20203;-70
2022/04/13 00:37:32;;;;;;;0.10;0.10;;;10.50;99.90;12.80;88045.00;;;;5000331;28;20202;-70
2022/04/13 00:40:00;;;;;;;0.10;0.10;;;10.50;99.90;12.80;88045.00;;;;5020536;28;20227;-70
2022/04/13 00:42:29;;;;;;;0.10;0.10;;;10.50;99.90;12.80;88045.00;;;;5015615;28;20202;-69
2022/04/13 00:44:57;;;;;;;0.10;0.10;;;10.50;99.90;12.80;88045.00;;;;5020939;28;20199;-69
2022/04/13 00:47:26;;;;;;;0.10;0.10;;;10.50;99.90;12.80;88045.00;;;;5003586;28;20204;-69
2022/04/13 00:49:54;;;;;;;0.10;0.10;;;10.40;99.90;12.80;88045.00;;;;5004267;28;20238;-71
2022/04/13 00:52:27;;;;;;;0.10;0.10;;;10.40;99.90;12.80;88045.00;;;;5004511;28;20189;-70
2022/04/13 00:54:58;;;;;;;0.10;0.10;;;10.40;99.90;12.80;88045.00;;;;5016913;28;20885;-69
2022/04/13 00:57:33;;;;;;;0.10;0.10;;;10.40;99.90;12.80;88045.00;;;;5027852;28;20219;-69
2022/04/13 01:00:03;;;;;;;0.10;0.10;;;10.50;99.90;12.80;88045.00;;;;5020815;28;20659;-69
2022/04/13 01:02:33;;;;;;;0.10;0.10;;;10.50;99.90;12.80;88045.00;;;;5019645;28;20195;-70
2022/04/13 01:05:05;;;;;;;0.10;0.10;;;10.50;99.90;12.80;88045.00;;;;5012627;28;20203;-69
2022/04/13 01:07:34;;;;;;;0.10;0.10;;;10.50;99.90;12.80;88045.00;;;;5012235;28;20210;-69
2022/04/13 01:10:06;;;;;;;0.10;0.10;;;10.40;99.90;12.80;88045.00;;;;4995984;28;20220;-68
2022/04/13 01:12:36;;;;;;;0.10;0.10;;;10.50;99.90;12.80;88045.00;;;;5001311;28;20232;-69
2022/04/13 01:15:06;;;;;;;0.10;0.10;;;10.40;99.90;12.80;88045.00;;;;5020562;28;20610;-69
2022/04/13 01:17:37;;;;;;;0.10;0.10;;;10.40;99.90;12.80;88045.00;;;;5012023;28;20196;-69
2022/04/13 01:20:08;;;;;;;0.10;0.10;;;10.40;99.90;12.80;88045.00;;;;5009911;28;20242;-69
2022/04/13 01:22:37;;;;;;;0.10;0.10;;;10.30;99.90;12.80;88045.00;;;;5011308;28;20772;-70
2022/04/13 01:25:07;;;;;;;0.10;0.10;;;10.20;99.90;12.80;88045.00;;;;5012224;28;20195;-70
2022/04/13 01:27:35;;;;;;;0.10;0.10;;;10.20;99.90;12.80;88045.00;;;;5010794;28;20188;-70
2022/04/13 01:30:09;;;;;;;0.10;0.10;;;10.20;99.90;12.80;88045.00;;;;5018905;28;20777;-70
2022/04/13 01:32:37;;;;;;;0.00;0.00;;;10.20;99.90;12.80;88045.00;;;;5010612;28;20219;-70
2022/04/13 01:35:07;;;;;;;0.00;0.00;;;10.20;99.90;12.80;88045.00;;;;5011320;28;20662;-70
2022/04/13 01:37:37;;;;;;;0.10;0.10;;;10.30;99.90;12.80;88045.00;;;;5010590;28;20203;-69
2022/04/13 01:40:06;;;;;;;0.00;0.00;;;10.30;99.90;12.80;88045.00;;;;5019766;28;20751;-70
2022/04/13 01:42:34;;;;;;;0.10;0.10;;;10.30;99.90;12.80;88045.00;;;;5012125;28;20202;-70
2022/04/13 01:45:02;;;;;;;0.10;0.10;;;10.20;99.90;12.80;88045.00;;;;5011407;28;20215;-70
2022/04/13 01:47:30;;;;;;;0.10;0.10;;;10.20;99.90;12.80;88045.00;;;;5012667;28;20203;-70
2022/04/13 01:49:59;;;;;;;0.10;0.10;;;10.20;99.90;12.80;88045.00;;;;5013930;28;20215;-69
2022/04/13 01:52:27;;;;;;;0.10;0.10;;;10.20;99.90;12.80;88045.00;;;;5014779;28;20211;-70
2022/04/13 01:54:56;;;;;;;0.00;0.00;;;10.20;99.90;12.80;88045.00;;;;5020713;28;20195;-70
2022/04/13 01:57:24;;;;;;;0.10;0.10;;;10.20;99.90;12.80;88045.00;;;;4993215;28;20215;-69
2022/04/13 01:59:52;;;;;;;0.05;0.05;;;10.10;99.90;12.80;88045.00;;;;4998007;28;20258;-70
2022/04/13 02:02:20;;;;;;;0.10;0.10;;;10.10;99.90;12.80;88045.00;;;;5010530;28;20200;-70
2022/04/13 02:04:49;;;;;;;0.10;0.10;;;10.10;99.90;12.80;88045.00;;;;5011742;28;20191;-69
2022/04/13 02:07:17;;;;;;;0.10;0.10;;;10.10;99.90;12.80;88045.00;;;;5011391;28;20246;-69
2022/04/13 02:09:45;;;;;;;0.10;0.10;;;10.10;99.90;12.80;88045.00;;;;5009585;28;20203;-71
2022/04/13 02:12:14;;;;;;;0.10;0.10;;;10.10;99.90;12.80;88045.00;;;;5015290;28;20235;-71
2022/04/13 02:14:43;;;;;;;0.10;0.10;;;10.00;99.90;12.80;88045.00;;;;4992213;28;20196;-70
2022/04/13 02:17:14;;;;;;;0.10;0.10;;;10.00;99.90;12.80;88045.00;;;;4993334;28;20283;-71
2022/04/13 02:19:43;;;;;;;0.10;0.10;;;10.00;99.90;12.80;88045.00;;;;4991533;28;20220;-71
2022/04/13 02:22:11;;;;;;;0.10;0.10;;;10.00;99.90;12.80;88045.00;;;;5006316;28;20202;-69
2022/04/13 02:25:00;;;;;;;0.10;0.10;;;10.00;99.90;12.80;88045.00;;;;5009497;28;20259;-69
2022/04/13 02:27:30;;;;;;;0.10;0.10;;;10.00;99.90;12.80;88045.00;;;;5015035;28;20265;-69
2022/04/13 02:29:58;;;;;;;0.10;0.10;;;9.90;99.90;12.80;88045.00;;;;5014032;28;20223;-69
2022/04/13 02:32:26;;;;;;;0.10;0.10;;;9.90;99.90;12.80;88045.00;;;;5011584;28;20199;-71
2022/04/13 02:34:54;;;;;;;0.10;0.10;;;9.90;99.90;12.80;88045.00;;;;5003875;28;20208;-69
2022/04/13 02:37:22;;;;;;;0.10;0.10;;;9.80;99.90;12.80;88045.00;;;;4997092;28;20666;-68
2022/04/13 02:39:50;;;;;;;0.10;0.10;;;9.80;99.90;12.80;88045.00;;;;5015010;28;20223;-68
2022/04/13 02:42:18;;;;;;;0.10;0.10;;;9.80;1.00;12.80;88045.00;;;;5012043;28;20204;-69
2022/04/13 02:44:47;;;;;;;0.10;0.10;;;9.80;1.00;12.80;88045.00;;;;4994065;28;20208;-69
2022/04/13 02:47:15;;;;;;;0.10;0.10;;;9.70;1.00;12.80;88045.00;;;;4992643;28;20200;-69
2022/04/13 02:49:43;;;;;;;0.10;0.10;;;9.80;1.00;12.80;88045.00;;;;4991359;28;20586;-70
2022/04/13 02:52:11;;;;;;;0.10;0.10;;;9.80;1.00;12.80;88045.00;;;;5007687;28;20229;-70
2022/04/13 02:54:39;;;;;;;0.10;0.10;;;9.60;1.00;12.80;88045.00;;;;5006341;28;20208;-69
2022/04/13 02:57:07;;;;;;;0.10;0.10;;;9.60;1.00;12.80;88045.00;;;;5008962;28;20204;-69
2022/04/13 02:59:35;;;;;;;0.10;0.10;;;9.60;1.00;12.80;88045.00;;;;4991409;28;20205;-69
2022/04/13 03:02:05;;;;;;;0.10;0.10;;;9.50;1.00;12.80;88045.00;;;;5008308;28;20242;-69
2022/04/13 03:04:34;;;;;;;0.08;0.08;;;9.40;1.00;12.80;88045.00;;;;4996941;28;20224;-69
2022/04/13 03:07:03;;;;;;;0.10;0.10;;;9.30;1.00;12.80;88045.00;;;;4994844;28;20555;-69
2022/04/13 03:09:31;;;;;;;0.10;0.10;;;9.30;1.00;12.80;88045.00;;;;4994839;28;20200;-69
2022/04/13 03:11:58;;;;;;;0.10;0.10;;;9.20;1.00;12.80;88045.00;;;;5001979;28;20234;-69
2022/04/13 03:14:26;;;;;;;0.10;0.10;;;9.20;1.00;12.80;88045.00;;;;5025130;28;20198;-69
2022/04/13 03:16:54;;;;;;;0.10;0.10;;;9.20;1.00;12.80;88045.00;;;;5019883;28;20657;-69
2022/04/13 03:19:24;;;;;;;0.10;0.10;;;9.10;1.00;12.80;88045.00;;;;5005543;28;20193;-69
2022/04/13 03:21:54;;;;;;;0.10;0.10;;;9.10;1.00;12.80;88045.00;;;;4994672;28;20271;-70
2022/04/13 03:24:22;;;;;;;0.10;0.10;;;9.00;1.00;12.80;88045.00;;;;4995165;28;20200;-69
2022/04/13 03:26:50;;;;;;;0.10;0.10;;;9.00;1.00;12.80;88045.00;;;;4994159;28;20192;-70
2022/04/13 03:29:19;;;;;;;0.10;0.10;;;9.00;1.00;12.80;88045.00;;;;5013337;28;20195;-70
2022/04/13 03:31:47;;;;;;;0.10;0.10;;;8.80;99.90;12.80;88045.00;;;;5017536;28;20224;-70
2022/04/13 03:34:20;;;;;;;0.10;0.10;;;8.80;99.90;12.80;88045.00;;;;5010662;28;20196;-70
2022/04/13 03:36:50;;;;;;;0.10;0.10;;;8.80;99.90;12.80;88045.00;;;;4997393;28;20206;-70
2022/04/13 03:39:18;;;;;;;0.10;0.10;;;8.80;99.90;12.80;88045.00;;;;5019036;28;20207;-70
2022/04/13 03:41:46;;;;;;;0.10;0.10;;;8.80;99.90;12.80;88045.00;;;;5013015;28;20231;-70
2022/04/13 03:44:14;;;;;;;0.10;0.10;;;8.80;99.90;12.80;88045.00;;;;5006044;28;20665;-70
2022/04/13 03:46:42;;;;;;;0.10;0.10;;;8.60;99.90;12.80;88045.00;;;;5009678;28;20288;-70
2022/04/13 03:49:11;;;;;;;0.10;0.10;;;8.70;1.00;12.80;88045.00;;;;4999869;28;20205;-70
2022/04/13 03:51:39;;;;;;;0.10;0.10;;;8.60;1.00;12.80;88045.00;;;;5024093;28;20227;-69
2022/04/13 03:54:08;;;;;;;0.10;0.10;;;8.60;1.00;12.80;88045.00;;;;5015667;28;20608;-69
2022/04/13 03:56:36;;;;;;;0.10;0.10;;;8.60;99.90;12.80;88045.00;;;;5016552;28;20545;-70
2022/04/13 03:59:07;;;;;;;0.10;0.10;;;8.70;99.90;12.80;88045.00;;;;5002626;28;20231;-70
2022/04/13 04:01:35;;;;;;;0.10;0.10;;;8.80;99.90;12.80;88045.00;;;;4999812;28;20218;-70
2022/04/13 04:04:04;;;;;;;0.10;0.10;;;8.80;99.90;12.80;88045.00;;;;5023419;28;20196;-70
2022/04/13 04:06:32;;;;;;;0.10;0.10;;;8.70;99.90;12.80;88045.00;;;;5011360;28;20215;-70
2022/04/13 04:08:59;;;;;;;0.10;0.10;;;8.60;1.00;12.80;88045.00;;;;4994051;28;20192;-70
2022/04/13 04:11:29;;;;;;;0.10;0.10;;;8.60;1.00;12.80;88045.00;;;;4999917;28;20689;-70
2022/04/13 04:13:57;;;;;;;0.10;0.10;;;8.50;1.00;12.80;88045.00;;;;5020591;28;20200;-70
2022/04/13 04:16:25;;;;;;;0.10;0.10;;;8.50;1.00;12.80;88045.00;;;;5012024;28;20200;-70
2022/04/13 04:18:53;;;;;;;0.10;0.10;;;8.60;1.00;12.80;88045.00;;;;5014156;28;20230;-70
2022/04/13 04:21:21;;;;;;;0.10;0.10;;;8.70;99.90;12.80;88045.00;;;;5025381;28;20254;-71
2022/04/13 04:23:49;;;;;;;0.10;0.10;;;8.70;99.90;12.80;88045.00;;;;5035075;28;20199;-71
2022/04/13 04:26:17;;;;;;;0.10;0.10;;;8.80;99.90;12.80;88045.00;;;;5033147;28;20188;-71
2022/04/13 04:28:46;;;;;;;0.10;0.10;;;8.80;99.90;12.80;88045.00;;;;5019656;28;20278;-71
2022/04/13 04:31:19;;;;;;;0.10;0.10;;;8.80;99.90;12.80;88045.00;;;;5032665;28;20234;-71
2022/04/13 04:33:47;;;;;;;0.10;0.10;;;8.70;99.90;12.80;88045.00;;;;5033342;28;20189;-71
2022/04/13 04:36:15;;;;;;;0.10;0.10;;;8.80;99.90;12.80;88045.00;;;;5013905;28;20254;-71
2022/04/13 04:38:43;;;;;;;0.10;0.10;;;8.70;1.00;12.80;88045.00;;;;5012636;28;20215;-71
2022/04/13 04:41:11;;;;;;;0.10;0.10;;;8.60;1.00;12.80;88045.00;;;;5031619;28;20223;-71
2022/04/13 04:43:39;;;;;;;0.10;0.10;;;8.60;1.00;12.80;88045.00;;;;5013221;28;20691;-71
2022/04/13 04:46:10;;;;;;;0.10;0.10;;;8.50;1.00;12.80;88045.00;;;;5013213;28;20199;-70
2022/04/13 04:48:40;;;;;;;0.10;0.10;;;8.60;1.00;12.80;88045.00;;;;5014177;28;20184;-70
2022/04/13 04:51:08;;;;;;;0.10;0.10;;;8.50;1.00;12.80;88045.00;;;;4995810;28;20224;-70
2022/04/13 04:53:37;;;;;;;0.10;0.10;;;8.50;1.00;12.80;88045.00;;;;5013702;28;20242;-69
2022/04/13 04:56:05;;;;;;;0.10;0.10;;;8.50;1.00;12.80;88045.00;;;;5013265;28;20196;-70
2022/04/13 04:58:34;;;;;;;0.10;0.10;;;8.40;1.00;12.80;88045.00;;;;5004464;28;20199;-70
2022/04/13 05:01:01;;;;;;;0.10;0.10;;;8.50;1.00;12.80;88045.00;;;;5000594;28;20220;-73
2022/04/13 05:03:32;;;;;;;0.10;0.10;;;8.60;1.00;12.80;88045.00;;;;4997610;28;20200;-71
2022/04/13 05:06:00;;;;;;;0.10;0.10;;;8.60;1.00;12.80;88045.00;;;;5003210;28;20211;-70
2022/04/13 05:08:28;;;;;;;0.10;0.10;;;8.60;1.00;12.80;88045.00;;;;4996090;28;20197;-70
2022/04/13 05:10:56;;;;;;;0.10;0.10;;;8.70;1.00;12.80;88045.00;;;;4994722;28;20274;-70
2022/04/13 05:13:24;;;;;;;0.10;0.10;;;8.80;1.00;12.80;88045.00;;;;4996948;28;20203;-70
2022/04/13 05:15:53;;;;;;;0.10;0.10;;;8.80;1.00;12.80;88045.00;;;;4993729;28;20192;-70
2022/04/13 05:18:21;;;;;;;0.10;0.10;;;8.80;1.00;12.80;88045.00;;;;4993162;28;20197;-70
2022/04/13 05:20:51;;;;;;;0.10;0.10;;;8.90;1.00;12.80;88045.00;;;;4991915;28;20234;-70
2022/04/13 05:23:19;;;;;;;0.10;0.10;;;9.00;1.00;12.80;88045.00;;;;4991949;28;20243;-70
2022/04/13 05:25:47;;;;;;;0.10;0.10;;;8.90;1.00;12.80;88045.00;;;;5001853;28;20573;-70
2022/04/13 05:28:16;;;;;;;0.05;0.05;;;9.00;1.00;12.80;88045.00;;;;4994683;28;20208;-70
2022/04/13 05:30:44;;;;;;;0.10;0.10;;;9.00;1.00;12.80;88045.00;;;;4992585;28;20220;-70
2022/04/13 05:33:12;;;;;;;0.10;0.10;;;9.10;99.90;12.80;88045.00;;;;4992634;28;20254;-71
2022/04/13 05:35:40;;;;;;;0.10;0.10;;;9.20;1.00;12.80;88045.00;;;;4991758;28;20263;-70
2022/04/13 05:38:10;;;;;;;0.10;0.10;;;9.20;99.90;12.80;88045.00;;;;4992628;28;20204;-70
2022/04/13 05:40:38;;;;;;;0.10;0.10;;;9.20;99.90;12.80;88045.00;;;;4992681;28;20627;-70
2022/04/13 05:43:06;;;;;;;0.10;0.10;;;9.30;99.90;12.80;88045.00;;;;4992446;28;20215;-70
2022/04/13 05:45:35;;;;;;;0.05;0.05;;;9.30;99.90;12.80;88045.00;;;;4992828;28;20189;-71
2022/04/13 05:48:05;;;;;;;0.00;0.00;;;9.30;99.90;12.80;88045.00;;;;4993348;28;20231;-70
2022/04/13 05:50:33;;;;;;;0.10;0.10;;;9.30;99.90;12.80;88045.00;;;;4992892;28;20208;-70
2022/04/13 05:53:01;;;;;;;0.10;0.10;;;9.40;99.90;12.80;88045.00;;;;4993801;28;20624;-70
2022/04/13 05:55:31;;;;;;;0.10;0.10;;;9.50;99.90;12.80;88045.00;;;;4992691;28;20196;-69
2022/04/13 05:57:59;;;;;;;0.10;0.10;;;9.50;99.90;12.80;88045.00;;;;4992225;28;20211;-70
2022/04/13 06:00:27;;;;;;;0.10;0.10;;;9.50;99.90;12.80;88045.00;;;;4992431;28;20267;-70
2022/04/13 06:02:55;;;;;;;0.10;0.10;;;9.50;99.90;12.80;88045.00;;;;4992739;28;20220;-70
2022/04/13 06:05:24;;;;;;;0.10;0.10;;;9.60;99.90;12.80;88045.00;;;;4992612;28;20201;-70
2022/04/13 06:07:53;;;;;;;0.10;0.10;;;9.60;99.90;12.80;88045.00;;;;4991732;28;20200;-70
2022/04/13 06:10:21;;;;;;;0.10;0.10;;;9.50;99.90;12.80;88045.00;;;;4991713;28;20212;-70
2022/04/13 06:12:51;;;;;;;0.10;0.10;;;9.70;99.90;12.80;88045.00;;;;4992360;28;20195;-70
2022/04/13 06:15:19;;;;;;;0.10;0.10;;;9.80;1.00;12.80;88045.00;;;;4992370;28;20219;-70
2022/04/13 06:17:47;;;;;;;0.10;0.10;;;9.90;1.00;12.80;88045.00;;;;4992326;28;20216;-69
2022/04/13 06:20:15;;;;;;;0.10;0.10;;;9.90;1.00;12.80;88045.00;;;;4992579;28;20235;-70
2022/04/13 06:22:44;;;;;;;0.10;0.10;;;10.00;1.00;12.80;88045.00;;;;4992445;28;20228;-70
2022/04/13 06:25:13;;;;;;;0.10;0.10;;;10.10;1.00;12.80;88045.00;;;;5011710;28;20192;-70
2022/04/13 06:27:41;;;;;;;0.10;0.10;;;10.20;1.00;12.80;88045.00;;;;5011641;28;20192;-70
2022/04/13 06:30:13;;;;;;;0.10;0.10;;;10.30;1.00;12.80;88045.00;;;;5012037;28;20220;-71
2022/04/13 06:32:43;;;;;;;0.10;0.10;;;10.40;1.00;12.80;88045.00;;;;5012878;28;20688;-70
2022/04/13 06:35:14;;;;;;;0.10;0.10;;;10.50;1.00;12.80;88045.00;;;;5012270;28;20207;-70
2022/04/13 06:37:44;;;;;;;0.10;0.10;;;10.60;1.00;12.80;88045.00;;;;5014914;28;20187;-70
2022/04/13 06:40:14;;;;;;;0.10;0.10;;;10.70;1.00;12.80;88045.00;;;;5015798;28;20671;-70
2022/04/13 06:42:43;;;;;;;0.10;0.10;;;10.80;1.00;12.80;88045.00;;;;5015814;28;20212;-70
2022/04/13 06:45:15;;;;;;;0.10;0.10;;;10.90;1.00;12.80;88045.00;;;;5015668;28;20210;-70
2022/04/13 06:47:44;;;;;;;0.10;0.10;;;11.00;1.00;12.80;88045.00;;;;5015373;28;20292;-70
2022/04/13 06:50:12;;;;;;;0.10;0.10;;;11.20;1.00;12.80;88045.00;;;;5015340;28;20763;-70
2022/04/13 06:52:42;;;;;;;0.10;0.10;;;11.30;1.00;12.80;88045.00;;;;5015149;28;20202;-70
2022/04/13 06:55:10;;;;;;;0.10;0.10;;;11.40;1.00;12.80;88045.00;;;;5015500;28;20192;-69
2022/04/13 06:57:39;;;;;;;0.10;0.10;;;11.50;1.00;12.80;88045.00;;;;5014845;28;20561;-70
2022/04/13 07:00:10;;;;;;;0.10;0.10;;;11.60;99.90;12.80;88045.00;;;;5015039;28;20212;-70
2022/04/13 07:02:40;;;;;;;0.10;0.10;;;11.70;99.90;12.80;88045.00;;;;5030350;28;20246;-71
2022/04/13 07:05:30;;;;;;;0.10;0.10;;;11.80;99.90;12.80;88045.00;;;;5015420;28;20196;-70
2022/04/13 07:08:00;;;;;;;0.03;0.03;;;12.00;99.90;12.80;88045.00;;;;5012047;28;20286;-70
2022/04/13 07:10:29;;;;;;;0.10;0.10;;;12.10;99.90;12.80;88045.00;;;;5015298;28;20223;-71
2022/04/13 07:12:57;;;;;;;0.00;0.00;;;12.20;99.90;12.80;88045.00;;;;5014968;28;20207;-70
2022/04/13 07:15:27;;;;;;;0.10;0.10;;;12.30;99.90;12.80;88045.00;;;;5015445;28;20235;-70
2022/04/13 07:17:57;;;;;;;0.10;0.10;;;12.40;99.90;12.80;88045.00;;;;5014555;28;20277;-70
2022/04/13 07:20:25;;;;;;;0.10;0.10;;;12.40;99.90;12.80;88045.00;;;;5014973;28;20231;-71
2022/04/13 07:22:55;;;;;;;0.10;0.10;;;12.60;99.90;12.80;88045.00;;;;5014453;28;20220;-70
2022/04/13 07:25:24;;;;;;;0.10;0.10;;;12.60;99.90;12.80;88045.00;;;;5014593;28;20290;-70
2022/04/13 07:27:52;;;;;;;0.10;0.10;;;12.60;99.90;12.80;88045.00;;;;5014754;28;20203;-70
2022/04/13 07:30:22;;;;;;;0.10;0.10;;;12.60;99.90;12.80;88045.00;;;;5015678;28;20215;-70
2022/04/13 07:32:55;;;;;;;0.00;0.00;;;12.70;99.90;12.80;88045.00;;;;5019349;28;20199;-70
2022/04/13 07:35:24;;;;;;;0.10;0.10;;;12.80;99.90;12.80;88045.00;;;;5033656;28;20665;-70
2022/04/13 07:37:53;;;;;;;0.10;0.10;;;13.00;99.90;12.80;88045.00;;;;5020358;28;20192;-71
2022/04/13 07:40:21;;;;;;;0.10;0.10;;;13.10;99.90;12.80;88045.00;;;;5020481;28;20572;-71
2022/04/13 07:42:49;;;;;;;0.10;0.10;;;13.20;99.90;12.80;88045.00;;;;5013112;28;20220;-71
2022/04/13 07:45:18;;;;;;;0.10;0.10;;;13.30;99.90;12.80;88045.00;;;;5014528;28;20192;-70
2022/04/13 07:47:46;;;;;;;0.10;0.10;;;13.40;99.90;12.80;88045.00;;;;5013388;28;20192;-70
2022/04/13 07:50:14;;;;;;;0.00;0.00;;;13.50;99.90;12.80;88045.00;;;;5014438;28;20229;-71
2022/04/13 07:52:44;;;;;;;0.10;0.10;;;13.60;99.90;12.80;88045.00;;;;5014403;28;20274;-70
2022/04/13 07:55:12;;;;;;;0.10;0.10;;;13.70;99.90;12.80;88045.00;;;;5014458;28;20202;-70
2022/04/13 07:57:40;;;;;;;0.05;0.05;;;13.80;99.90;12.80;88045.00;;;;5014702;28;20214;-70
2022/04/13 08:00:11;;;;;;;0.10;0.10;;;14.00;99.90;12.80;88045.00;;;;5015154;28;20215;-70
2022/04/13 08:02:42;;;;;;;0.10;0.10;;;14.20;99.90;12.80;88045.00;;;;4997227;28;20205;-71
2022/04/13 08:05:13;;;;;;;0.10;0.10;;;14.30;99.90;12.80;88045.00;;;;5015798;28;20206;-71
2022/04/13 08:07:43;;;;;;;0.00;0.00;;;14.50;99.90;12.80;88045.00;;;;5018110;28;20199;-70
2022/04/13 08:10:12;;;;;;;0.00;0.00;;;14.60;99.90;12.80;88045.00;;;;5018487;28;20223;-70
2022/04/13 08:12:40;;;;;;;0.10;0.10;;;14.70;99.90;12.80;88045.00;;;;5019382;28;20192;-70
2022/04/13 08:15:10;;;;;;;0.00;0.00;;;14.80;97.50;12.80;88045.00;;;;5019036;28;20251;-70
2022/04/13 08:17:39;;;;;;;0.00;0.00;;;14.90;96.60;12.80;88045.00;;;;5018532;28;20283;-70
2022/04/13 08:20:11;;;;;;;0.10;0.10;;;15.00;91.20;12.80;88045.00;;;;5020312;28;20246;-71
2022/04/13 08:22:41;;;;;;;0.10;0.10;;;15.10;91.00;12.80;88045.00;;;;5018637;28;20282;-71
2022/04/13 08:25:12;;;;;;;0.03;0.03;;;15.10;90.40;12.80;88045.00;;;;5016304;28;20667;-70
2022/04/13 08:28:00;;;;;;;0.10;0.10;;;15.20;90.60;12.80;88045.00;;;;5017456;28;20200;-70
2022/04/13 08:30:28;;;;;;;0.00;0.00;;;15.30;81.20;12.80;88045.00;;;;5017536;28;20697;-73
2022/04/13 08:32:55;;;;;;;0.03;0.03;;;15.30;74.20;12.80;88045.00;;;;5017746;28;20192;-71
2022/04/13 08:35:27;;;;;;;0.00;0.00;;;15.30;75.60;12.80;88045.00;;;;5014279;28;20572;-71
2022/04/13 08:37:55;;;;;;;0.00;0.00;;;15.40;74.00;12.80;88045.00;;;;5015971;28;20188;-70
2022/04/13 08:40:25;;;;;;;0.10;0.10;;;15.40;70.70;12.80;88045.00;;;;5016265;28;20208;-70
2022/04/13 08:43:09;;;;;;;0.00;0.00;;;15.50;71.30;12.80;88045.00;;;;5016008;28;20206;-72
2022/04/13 08:45:53;;;;;;;0.00;0.00;;;15.60;60.00;12.80;88045.00;;;;5014398;28;20574;-69
2022/04/13 08:48:36;;;;;;;0.00;0.00;;;15.70;58.60;12.80;88045.00;;;;5013872;28;20192;-69
2022/04/13 08:51:24;;;;;;;0.00;0.00;;;15.70;59.10;12.80;88045.00;;;;5015061;28;20231;-69
2022/04/13 08:57:11;;;;;;;0.00;0.00;;;15.80;54.00;12.80;88045.00;;;;5015117;28;20200;-70
2022/04/13 09:00:14;;;;;;;0.00;0.00;;;15.90;53.00;12.80;88045.00;;;;5013051;28;20582;-70
2022/04/13 09:03:27;;;;;;;0.00;0.00;;;15.90;49.60;12.80;88045.00;;;;5013116;28;20602;-70
2022/04/13 09:05:58;;;;;;;0.00;0.00;;;15.90;50.00;12.80;88045.00;;;;4966996;28;20245;-70
2022/04/13 09:08:42;;;;;;;0.00;0.00;;;16.00;54.10;12.80;88045.00;;;;5013141;28;20192;-70
2022/04/13 09:11:21;;;;;;;0.00;0.00;;;16.10;56.40;12.80;88045.00;;;;5012645;28;20235;-70
2022/04/13 09:13:55;;;;;;;0.00;0.00;;;16.20;57.00;12.80;88045.00;;;;5013079;28;20269;-70
2022/04/13 09:16:51;;;;;;;0.00;0.00;;;16.30;46.90;12.80;88045.00;;;;5012172;28;20585;-70
2022/04/13 09:23:07;;;;;;;0.10;0.10;;;16.60;48.60;12.80;88045.00;;;;4951848;29;20198;-70
2022/04/13 09:25:41;;;;;;;0.05;0.05;;;16.70;38.20;12.80;88045.00;;;;4951863;29;20206;-70
2022/04/13 09:28:09;;;;;;;0.00;0.00;;;16.80;33.50;12.80;88045.00;;;;4952159;29;20217;-70
2022/04/13 09:30:39;;;;;;;0.00;0.00;;;16.90;36.00;12.80;88045.00;;;;4951981;28;20236;-70
2022/04/13 09:33:07;;;;;;;0.00;0.00;;;17.10;32.50;12.80;88045.00;;;;4952112;29;20202;-71
2022/04/13 09:35:36;;;;;;;0.00;0.00;;;17.30;29.30;12.80;88045.00;;;;4951552;29;20209;-70
2022/04/13 09:38:06;;;;;;;0.00;0.00;;;17.50;28.30;12.80;88045.00;;;;4951674;29;20210;-70
2022/04/13 09:40:39;;;;;;;0.10;0.10;;;17.60;26.70;12.80;88045.00;;;;4951605;28;20217;-70
2022/04/13 09:43:16;;;;;;;0.00;0.00;;;17.70;21.70;12.80;88045.00;;;;4951774;29;20313;-70
2022/04/13 09:45:48;;;;;;;0.00;0.00;;;17.90;22.30;12.80;88045.00;;;;4951373;29;20232;-70
2022/04/13 09:48:19;;;;;;;0.00;0.00;;;18.00;23.20;12.80;88045.00;;;;4951720;29;20824;-70
2022/04/13 09:50:50;;;;;;;0.00;0.00;;;18.00;38.90;12.80;88045.00;;;;4951287;28;20242;-70
2022/04/13 09:53:21;;;;;;;0.00;0.00;;;18.10;22.70;12.80;88045.00;;;;4951547;29;20202;-70
2022/04/13 09:55:51;;;;;;;0.00;0.00;;;18.20;24.00;12.80;88045.00;;;;4952794;28;20198;-70
2022/04/13 09:58:22;;;;;;;0.00;0.00;;;18.20;22.20;12.80;88045.00;;;;5012500;28;20561;-70
2022/04/13 10:00:54;;;;;;;0.00;0.00;;;18.30;22.20;12.80;88045.00;;;;5011785;28;20235;-70
2022/04/13 10:03:24;;;;;;;0.00;0.00;;;18.40;21.50;12.80;88045.00;;;;5012102;28;20206;-70
2022/04/13 10:05:54;;;;;;;0.00;0.00;;;18.60;21.30;12.80;88045.00;;;;5011505;28;20215;-70
2022/04/13 10:08:25;;;;;;;0.00;0.00;;;18.60;17.90;12.80;88045.00;;;;5011856;28;20199;-70
2022/04/13 10:10:56;;;;;;;0.00;0.00;;;18.60;20.20;12.80;88045.00;;;;5012684;28;20218;-69
2022/04/13 10:13:36;;;;;;;0.00;0.00;;;18.70;17.30;12.80;88045.00;;;;5016161;28;20191;-70
2022/04/13 10:16:08;;;;;;;0.00;0.00;;;18.80;23.50;12.80;88045.00;;;;5015766;28;20231;-71
2022/04/13 10:18:54;;;;;;;0.00;0.00;;;19.00;13.60;12.80;88045.00;;;;5016279;28;20198;-70
2022/04/13 10:21:39;;;;;;;0.00;0.00;;;19.00;13.70;12.80;88045.00;;;;5016185;28;20763;-70
2022/04/13 10:24:10;;;;;;;0.00;0.00;;;19.30;17.90;12.80;88045.00;;;;5016678;28;20211;-71
2022/04/13 10:26:42;;;;;;;0.00;0.00;;;19.40;18.10;12.80;88045.00;;;;5016627;28;20192;-71
2022/04/13 10:29:18;;;;;;;0.00;0.00;;;19.50;18.40;12.80;88045.00;;;;5017322;28;20199;-70
2022/04/13 10:32:06;;;;;;;0.00;0.00;;;19.50;23.00;12.80;88045.00;;;;5016054;28;20215;-70
2022/04/13 10:34:36;;;;;;;0.00;0.00;;;19.60;20.60;12.80;88045.00;;;;5016144;28;20250;-70
2022/04/13 10:37:05;;;;;;;0.00;0.00;;;19.70;32.10;12.80;88045.00;;;;5015575;28;20334;-70
2022/04/13 10:39:34;;;;;;;0.00;0.00;;;19.80;23.90;12.80;88045.00;;;;5015426;28;20599;-70
2022/04/13 10:42:07;;;;;;;0.00;0.00;;;19.90;41.90;12.80;88045.00;;;;5014665;28;20203;-70
2022/04/13 10:44:37;;;;;;;0.00;0.00;;;19.80;57.90;12.80;88045.00;;;;5014928;28;20212;-70
2022/04/13 10:47:08;;;;;;;0.00;0.00;;;19.90;26.30;12.80;88045.00;;;;5016038;28;20236;-71
2022/04/13 10:49:54;;;;;;;0.00;0.00;;;19.90;19.30;12.80;88045.00;;;;5015774;28;20194;-70
2022/04/13 10:52:29;;;;;;;0.00;0.00;;;19.80;99.90;12.80;88045.00;;;;5015882;28;20192;-70
2022/04/13 10:55:05;;;;;;;0.00;0.00;;;20.00;14.40;12.80;88045.00;;;;5016260;28;20198;-70
2022/04/13 10:57:38;;;;;;;0.00;0.00;;;20.20;20.50;12.80;88045.00;;;;5015517;28;20187;-70
2022/04/13 11:00:10;;;;;;;0.00;0.00;;;20.20;20.60;12.80;88045.00;;;;5015379;28;20266;-70
2022/04/13 11:02:52;;;;;;;0.00;0.00;;;20.30;15.20;12.80;88045.00;;;;5015152;28;20723;-70
2022/04/13 11:05:25;;;;;;;0.00;0.00;;;20.30;17.40;12.80;88045.00;;;;5014705;28;20215;-71
2022/04/13 11:08:07;;;;;;;0.00;0.00;;;20.40;17.20;12.80;88045.00;;;;5014392;28;20564;-70
2022/04/13 11:10:37;;;;;;;0.00;0.00;;;20.40;35.00;12.80;88045.00;;;;5014585;28;20215;-70
2022/04/13 11:13:05;;;;;;;0.00;0.00;;;20.60;50.50;12.80;88045.00;;;;5014643;28;20199;-70
2022/04/13 11:15:40;;;;;;;0.00;0.00;;;20.70;18.60;12.80;88045.00;;;;5014288;28;20734;-70
2022/04/13 11:18:12;;;;;;;0.00;0.00;;;20.70;16.40;12.80;88045.00;;;;5014776;28;20226;-71
2022/04/13 11:21:05;;;;;;;0.00;0.00;;;20.70;18.20;12.80;88045.00;;;;5015455;28;20226;-70